This is the latest recevied weather packets stored in our database for station/object N5PUP-13. If no packets are shown the sender has not sent any weather packets the latest 10 day(s).
| Time | Temp. | Humidity | Pressure | Rain* | Wind** | Luminosity | Snow |
|---|---|---|---|---|---|---|---|
| 1787765400 | 31.67° C | 56% | 1019.8 hPa | 0 mm | - | - | - |
| 1787765100 | 31.11° C | 59% | 1019.9 hPa | 0 mm | - | - | - |
| 1787764800 | 30.56° C | 61% | 1019.9 hPa | 0 mm | - | - | - |
| 1787764500 | 30.56° C | 61% | 1019.9 hPa | 0 mm | - | - | - |
| 1787764200 | 30° C | 64% | 1020.1 hPa | 0 mm | - | - | - |
| 1787763900 | 30° C | 64% | 1020.2 hPa | 0 mm | - | - | - |
| 1787763600 | 29.44° C | 65% | 1020.3 hPa | 0 mm | - | - | - |
| 1787763300 | 28.33° C | 70% | 1020.4 hPa | 0 mm | - | - | - |
| 1787763000 | 29.44° C | 67% | 1020.3 hPa | 0 mm | - | - | - |
| 1787762700 | 28.33° C | 70% | 1020.3 hPa | 0 mm | - | - | - |
| 1787762400 | 27.78° C | 71% | 1020.3 hPa | 0 mm | - | - | - |
| 1787762100 | 27.78° C | 72% | 1020.3 hPa | 0 mm | - | - | - |
| 1787761800 | 27.78° C | 72% | 1020.3 hPa | 0 mm | - | - | - |
| 1787761500 | 27.22° C | 73% | 1020.3 hPa | 0 mm | - | - | - |
| 1787761200 | 27.78° C | 72% | 1020.3 hPa | 0 mm | - | - | - |
| 1787760900 | 27.78° C | 72% | 1020.2 hPa | 0 mm | - | - | - |
| 1787760600 | 27.22° C | 73% | 1020.3 hPa | 0 mm | - | - | - |
| 1787760300 | 27.22° C | 73% | 1020.3 hPa | 0 mm | - | - | - |
| 1787760000 | 26.67° C | 74% | 1020.3 hPa | 0 mm | - | - | - |
| 1787759700 | 27.22° C | 74% | 1020.3 hPa | 0 mm | - | - | - |
| 1787759400 | 27.22° C | 74% | 1020.2 hPa | 0 mm | - | - | - |
| 1787759100 | 27.22° C | 74% | 1020.2 hPa | 0 mm | - | - | - |
| 1787758800 | 26.67° C | 75% | 1020.3 hPa | 0 mm | - | - | - |
| 1787758500 | 26.67° C | 75% | 1020.2 hPa | 0 mm | - | - | - |
| 1787758200 | 26.11° C | 76% | 1020.2 hPa | 0 mm | - | - | - |
* Rain latest hour (hover to see other rain measurements)
** Current wind speed in m/s (hover to see current wind gust speed)